Granger, Minnesota
Current Conditions -  °F | °C
As of 2:35 AM on Monday 22 Dec 2014 (Local Time) from KFKA Reporting Station
Haze Haze  
Wind Chill: 24°   Ceiling: 400
Heat Index: 34°   Visibility: 2.5mi
Dew Point: 33°   Wind: 17mph
Humidity: 97%   Direction: 160°SSE
Pressure: 29.75"   Gusts: 21mph
Location:  43.57°N, 92.0698°W
Report Text: KFKA 220835Z AUTO 16015G18KT 2 1/2SM BR OVC004 01/01 A2975 RMK AO2 T00120007
Loading
Personal Weather Stations






























Interactive Weather Map New forecast layout! Learn more

10-Day Weather Forecast

Advertisements
Track Severe Weather on mobile